createdAt,value
2023-04-22T00:00:33.753Z,31.61
2023-04-22T00:01:33.780Z,31.72
2023-04-22T00:02:33.000Z,31.63
2023-04-22T00:03:33.056Z,31.62
2023-04-22T00:04:33.967Z,31.65
2023-04-22T00:05:32.921Z,31.70
2023-04-22T00:06:33.876Z,31.65
2023-04-22T00:07:33.927Z,31.59
2023-04-22T00:08:33.954Z,31.67
2023-04-22T00:09:32.962Z,31.71
2023-04-22T00:10:32.965Z,31.70
2023-04-22T00:11:32.994Z,31.74
2023-04-22T00:12:33.055Z,31.65
2023-04-22T00:13:33.046Z,31.73
2023-04-22T00:14:33.094Z,31.70
2023-04-22T00:15:34.111Z,31.71
2023-04-22T00:16:33.181Z,31.73
2023-04-22T00:17:33.193Z,31.71
2023-04-22T00:18:33.183Z,31.70
2023-04-22T00:19:33.279Z,31.76
2023-04-22T00:20:33.259Z,31.73
2023-04-22T00:21:33.253Z,31.82
2023-04-22T00:22:33.331Z,31.79
2023-04-22T00:23:33.352Z,31.81
2023-04-22T00:24:34.356Z,31.85
2023-04-22T00:25:34.412Z,31.77
2023-04-22T00:26:34.410Z,31.83
2023-04-22T00:27:34.463Z,31.82
2023-04-22T00:28:33.479Z,31.83
2023-04-22T00:29:34.542Z,31.83
2023-04-22T00:30:34.541Z,31.85
2023-04-22T00:31:34.673Z,31.77
2023-04-22T00:32:33.639Z,31.77
2023-04-22T00:33:34.632Z,31.77
2023-04-22T00:34:34.656Z,31.77
2023-04-22T00:35:33.726Z,31.83
2023-04-22T00:36:34.723Z,31.88
2023-04-22T00:37:33.750Z,31.75
2023-04-22T00:38:33.783Z,31.79
2023-04-22T00:39:34.857Z,31.80
2023-04-22T00:40:33.874Z,31.83
2023-04-22T00:41:33.897Z,31.79
2023-04-22T00:42:34.937Z,31.89
2023-04-22T00:43:33.991Z,31.84
2023-04-22T00:44:35.027Z,31.81
2023-04-22T00:45:34.067Z,31.94
2023-04-22T00:46:34.148Z,31.87
2023-04-22T00:47:35.228Z,31.89
2023-04-22T00:48:35.167Z,31.87
2023-04-22T00:49:35.196Z,31.81
2023-04-22T00:50:34.255Z,31.89
2023-04-22T00:51:34.301Z,31.91
2023-04-22T00:52:34.330Z,31.87
2023-04-22T00:53:34.353Z,31.89
2023-04-22T00:54:34.379Z,31.92
2023-04-22T00:55:34.431Z,31.89
2023-04-22T00:56:34.466Z,31.90
2023-04-22T00:57:34.509Z,31.97
2023-04-22T00:58:35.584Z,31.89
2023-04-22T00:59:35.625Z,31.92
2023-04-22T01:00:34.672Z,32.04
2023-04-22T01:01:34.969Z,32.03
2023-04-22T01:02:34.889Z,32.01
2023-04-22T01:03:35.875Z,31.95
2023-04-22T01:04:35.813Z,31.95
2023-04-22T01:05:34.897Z,31.96
2023-04-22T01:06:35.919Z,31.96
2023-04-22T01:07:35.975Z,31.96
2023-04-22T01:08:36.007Z,32.01
2023-04-22T01:09:35.065Z,31.98
2023-04-22T01:10:36.101Z,32.04
2023-04-22T01:11:36.148Z,32.01
2023-04-22T01:12:36.185Z,32.01
2023-04-22T01:13:35.232Z,31.96
2023-04-22T01:14:35.287Z,32.08
2023-04-22T01:15:36.326Z,32.04
2023-04-22T01:16:36.403Z,32.04
2023-04-22T01:17:35.478Z,32.05
2023-04-22T01:18:35.479Z,32.14
2023-04-22T01:19:35.509Z,32.10
2023-04-22T01:20:36.567Z,32.02
2023-04-22T01:21:35.639Z,32.04
2023-04-22T01:22:35.646Z,32.07
2023-04-22T01:23:36.722Z,32.05
2023-04-22T01:24:36.737Z,32.10
2023-04-22T01:25:36.758Z,32.10
2023-04-22T01:26:36.797Z,32.07
2023-04-22T01:27:36.862Z,32.07
2023-04-22T01:28:36.904Z,32.08
2023-04-22T01:29:37.135Z,32.14
2023-04-22T01:30:36.990Z,32.06
2023-04-22T01:31:36.045Z,32.08
2023-04-22T01:32:36.087Z,32.14
2023-04-22T01:33:36.110Z,32.16
2023-04-22T01:34:37.154Z,32.14
2023-04-22T01:35:37.407Z,32.19
2023-04-22T01:36:36.254Z,32.14
2023-04-22T01:37:37.294Z,32.10
2023-04-22T01:38:36.366Z,32.16
2023-04-22T01:39:36.413Z,32.07
2023-04-22T01:40:36.453Z,32.16
2023-04-22T01:41:36.535Z,32.16
2023-04-22T01:42:37.567Z,32.08
2023-04-22T01:43:36.619Z,32.10
2023-04-22T01:44:36.674Z,32.19
2023-04-22T01:45:37.851Z,32.11
2023-04-22T01:46:37.906Z,32.19
2023-04-22T01:47:36.869Z,32.09
2023-04-22T01:48:37.874Z,32.17
2023-04-22T01:49:38.258Z,32.21
2023-04-22T01:50:37.983Z,32.26
2023-04-22T01:51:38.019Z,32.23
2023-04-22T01:52:37.072Z,32.21
2023-04-22T01:53:37.140Z,32.20
2023-04-22T01:54:37.172Z,32.18
2023-04-22T01:55:38.283Z,32.20
2023-04-22T01:56:38.309Z,32.21
2023-04-22T01:57:37.379Z,32.23
2023-04-22T01:58:37.411Z,32.21
2023-04-22T01:59:38.874Z,32.27
2023-04-22T02:00:38.560Z,32.19
2023-04-22T02:01:37.668Z,32.24
2023-04-22T02:02:37.703Z,32.23
2023-04-22T02:03:37.752Z,32.26
2023-04-22T02:04:37.881Z,32.27
2023-04-22T02:05:38.812Z,32.29
2023-04-22T02:06:37.874Z,32.27
2023-04-22T02:07:38.948Z,32.32
2023-04-22T02:08:38.009Z,32.29
2023-04-22T02:09:39.393Z,32.30
2023-04-22T02:10:38.158Z,32.24
2023-04-22T02:11:39.204Z,32.34
2023-04-22T02:12:39.226Z,32.30
2023-04-22T02:13:39.314Z,32.27
2023-04-22T02:14:38.334Z,32.32
2023-04-22T02:15:39.444Z,32.34
2023-04-22T02:16:39.456Z,32.37
2023-04-22T02:17:39.513Z,32.26
2023-04-22T02:18:39.592Z,32.30
2023-04-22T02:19:39.919Z,32.29
2023-04-22T02:20:39.748Z,32.30
2023-04-22T02:21:39.769Z,32.27
2023-04-22T02:22:39.794Z,32.33
2023-04-22T02:23:39.893Z,32.36
2023-04-22T02:24:38.929Z,32.36
2023-04-22T02:25:39.014Z,32.31
2023-04-22T02:26:39.085Z,32.35
2023-04-22T02:27:40.168Z,32.36
2023-04-22T02:28:39.189Z,32.41
2023-04-22T02:29:39.597Z,32.37
2023-04-22T02:30:39.312Z,32.35
2023-04-22T02:31:40.411Z,32.33
2023-04-22T02:32:39.483Z,32.36
2023-04-22T02:33:40.502Z,32.36
2023-04-22T02:34:39.590Z,32.37
2023-04-22T02:35:40.643Z,32.42
2023-04-22T02:36:39.684Z,32.42
2023-04-22T02:37:39.738Z,32.36
2023-04-22T02:38:40.812Z,32.39
2023-04-22T02:39:40.124Z,32.46
2023-04-22T02:40:39.971Z,32.44
2023-04-22T02:41:39.998Z,32.39
2023-04-22T02:42:41.060Z,32.45
2023-04-22T02:43:41.151Z,32.40
2023-04-22T02:44:40.177Z,32.43
2023-04-22T02:45:41.279Z,32.41
2023-04-22T02:46:41.376Z,32.45
2023-04-22T02:47:40.392Z,32.45
2023-04-22T02:48:40.426Z,32.41
2023-04-22T02:49:40.860Z,32.40
2023-04-22T02:50:40.526Z,32.43
2023-04-22T02:51:40.561Z,32.45
2023-04-22T02:52:41.625Z,32.45
2023-04-22T02:53:41.667Z,32.49
2023-04-22T02:54:41.708Z,32.51
2023-04-22T02:55:41.766Z,32.41
2023-04-22T02:56:41.819Z,32.45
2023-04-22T02:57:41.890Z,32.48
2023-04-22T02:58:41.920Z,32.49
2023-04-22T02:59:42.239Z,32.49
2023-04-22T03:00:41.047Z,32.49
2023-04-22T03:01:42.045Z,32.43
2023-04-22T03:02:42.188Z,32.47
2023-04-22T03:03:41.234Z,32.51
2023-04-22T03:04:42.170Z,32.55
2023-04-22T03:05:41.234Z,32.54
2023-04-22T03:06:41.284Z,32.55
2023-04-22T03:07:42.314Z,32.49
2023-04-22T03:08:41.349Z,32.50
2023-04-22T03:09:41.697Z,32.58
2023-04-22T03:10:41.390Z,32.52
2023-04-22T03:11:41.425Z,32.55
2023-04-22T03:12:42.458Z,32.57
2023-04-22T03:13:41.485Z,32.52
2023-04-22T03:14:41.531Z,32.53
2023-04-22T03:15:42.616Z,32.58
2023-04-22T03:16:41.608Z,32.53
2023-04-22T03:17:41.743Z,32.52
2023-04-22T03:18:42.661Z,32.62
2023-04-22T03:19:42.061Z,32.56
2023-04-22T03:20:41.695Z,32.58
2023-04-22T03:21:41.724Z,32.56
2023-04-22T03:22:41.766Z,32.56
2023-04-22T03:23:42.761Z,32.58
2023-04-22T03:24:42.806Z,32.61
2023-04-22T03:25:42.817Z,32.53
2023-04-22T03:26:41.832Z,32.56
2023-04-22T03:27:41.902Z,32.64
2023-04-22T03:28:42.913Z,32.54
2023-04-22T03:29:42.185Z,32.62
2023-04-22T03:30:41.960Z,32.64
2023-04-22T03:31:43.089Z,32.61
2023-04-22T03:32:42.990Z,32.57
2023-04-22T03:33:41.945Z,32.64
2023-04-22T03:34:41.946Z,32.62
2023-04-22T03:35:42.965Z,32.59
2023-04-22T03:36:41.957Z,32.64
2023-04-22T03:37:41.968Z,32.61
2023-04-22T03:38:42.950Z,32.59
2023-04-22T03:39:43.039Z,32.61
2023-04-22T03:40:41.950Z,32.57
2023-04-22T03:41:41.996Z,32.64
2023-04-22T03:42:42.977Z,32.63
2023-04-22T03:43:41.969Z,32.62
2023-04-22T03:44:41.985Z,32.59
2023-04-22T03:45:42.007Z,32.57
2023-04-22T03:46:42.956Z,32.63
2023-04-22T03:47:42.023Z,32.63
2023-04-22T03:48:42.951Z,32.69
2023-04-22T03:49:42.159Z,32.62
2023-04-22T03:50:42.974Z,32.67
2023-04-22T03:51:41.956Z,32.67
2023-04-22T03:52:42.975Z,32.70
2023-04-22T03:53:41.951Z,32.66
2023-04-22T03:54:42.957Z,32.63
2023-04-22T03:55:41.963Z,32.66
2023-04-22T03:56:41.945Z,32.73
2023-04-22T03:57:41.959Z,32.71
2023-04-22T03:58:41.929Z,32.70
2023-04-22T03:59:42.985Z,32.65
2023-04-22T04:00:42.962Z,32.66
2023-04-22T04:01:41.927Z,32.69
2023-04-22T04:02:42.100Z,32.66
2023-04-22T04:03:42.177Z,32.60
2023-04-22T04:04:42.106Z,32.66
2023-04-22T04:05:42.124Z,32.63
2023-04-22T04:06:42.909Z,32.63
2023-04-22T04:07:42.931Z,32.67
2023-04-22T04:08:41.939Z,32.60
2023-04-22T04:09:42.326Z,32.66
2023-04-22T04:10:41.943Z,32.66
2023-04-22T04:11:41.928Z,32.66
2023-04-22T04:12:41.965Z,32.64
2023-04-22T04:13:41.929Z,32.71
2023-04-22T04:14:42.929Z,32.63
2023-04-22T04:15:41.985Z,32.67
2023-04-22T04:16:42.938Z,32.69
2023-04-22T04:17:42.005Z,32.70
2023-04-22T04:18:42.920Z,32.76
2023-04-22T04:19:43.200Z,32.70
2023-04-22T04:20:42.942Z,32.65
2023-04-22T04:21:42.914Z,32.70
2023-04-22T04:22:41.940Z,32.69
2023-04-22T04:23:42.972Z,32.70
2023-04-22T04:24:42.973Z,32.62
2023-04-22T04:25:41.931Z,32.67
2023-04-22T04:26:42.957Z,32.64
2023-04-22T04:27:42.003Z,32.70
2023-04-22T04:28:41.979Z,32.67
2023-04-22T04:29:42.238Z,32.62
2023-04-22T04:30:43.028Z,32.70
2023-04-22T04:31:42.040Z,32.67
2023-04-22T04:32:42.008Z,32.73
2023-04-22T04:33:41.980Z,32.68
2023-04-22T04:34:43.003Z,32.76
2023-04-22T04:35:43.007Z,32.75
2023-04-22T04:36:41.972Z,32.75
2023-04-22T04:37:41.996Z,32.73
2023-04-22T04:38:42.971Z,32.71
2023-04-22T04:39:43.034Z,32.73
2023-04-22T04:40:42.980Z,32.66
2023-04-22T04:41:41.991Z,32.68
2023-04-22T04:42:42.986Z,32.73
2023-04-22T04:43:41.969Z,32.74
2023-04-22T04:44:43.023Z,32.76
2023-04-22T04:45:43.362Z,32.80
2023-04-22T04:46:42.029Z,32.79
2023-04-22T04:47:42.044Z,32.77
2023-04-22T04:48:42.023Z,32.77
2023-04-22T04:49:42.375Z,32.73
2023-04-22T04:50:42.995Z,32.74
2023-04-22T04:51:43.033Z,32.74
2023-04-22T04:52:42.021Z,32.82
2023-04-22T04:53:42.028Z,32.76
2023-04-22T04:54:42.035Z,32.75
2023-04-22T04:55:43.033Z,32.72
2023-04-22T04:56:43.022Z,32.72
2023-04-22T04:57:43.024Z,32.79
2023-04-22T04:58:42.019Z,32.73
2023-04-22T04:59:43.036Z,32.77
2023-04-22T05:00:42.044Z,32.79
2023-04-22T05:01:43.138Z,32.77
2023-04-22T05:02:42.192Z,32.75
2023-04-22T05:03:42.268Z,32.72
2023-04-22T05:04:43.181Z,32.80
2023-04-22T05:05:43.045Z,32.84
2023-04-22T05:06:42.062Z,32.88
2023-04-22T05:07:43.149Z,32.79
2023-04-22T05:08:42.015Z,32.86
2023-04-22T05:09:43.150Z,32.80
2023-04-22T05:10:42.038Z,32.89
2023-04-22T05:11:42.024Z,32.88
2023-04-22T05:12:42.024Z,32.79
2023-04-22T05:13:43.023Z,32.83
2023-04-22T05:14:42.012Z,32.77
2023-04-22T05:15:43.032Z,32.83
2023-04-22T05:16:42.145Z,32.81
2023-04-22T05:17:42.056Z,32.87
2023-04-22T05:18:43.011Z,32.83
2023-04-22T05:19:43.022Z,32.80
2023-04-22T05:20:42.046Z,32.86
2023-04-22T05:21:43.025Z,32.78
2023-04-22T05:22:42.022Z,32.83
2023-04-22T05:23:42.050Z,32.86
2023-04-22T05:24:43.028Z,32.88
2023-04-22T05:25:42.021Z,32.84
2023-04-22T05:26:43.024Z,32.90
2023-04-22T05:27:43.001Z,32.87
2023-04-22T05:28:42.042Z,32.81
2023-04-22T05:29:43.252Z,32.89
2023-04-22T05:30:42.040Z,32.86
2023-04-22T05:31:42.020Z,32.84
2023-04-22T05:32:43.067Z,32.81
2023-04-22T05:33:42.028Z,32.86
2023-04-22T05:34:43.010Z,32.83
2023-04-22T05:35:42.015Z,32.86
2023-04-22T05:36:42.018Z,32.83
2023-04-22T05:37:42.006Z,32.86
2023-04-22T05:38:43.020Z,32.86
2023-04-22T05:39:43.034Z,32.87
2023-04-22T05:40:42.998Z,32.89
2023-04-22T05:41:42.569Z,32.89
2023-04-22T05:42:43.015Z,32.87
2023-04-22T05:43:43.001Z,32.90
2023-04-22T05:44:41.983Z,32.93
2023-04-22T05:45:43.116Z,32.87
2023-04-22T05:46:41.976Z,32.90
2023-04-22T05:47:42.020Z,32.90
2023-04-22T05:48:41.982Z,32.93
2023-04-22T05:49:42.372Z,32.89
2023-04-22T05:50:43.000Z,32.92
2023-04-22T05:51:42.988Z,32.88
2023-04-22T05:52:42.990Z,32.81
2023-04-22T05:53:42.999Z,32.92
2023-04-22T05:54:41.988Z,32.90
2023-04-22T05:55:43.017Z,32.87
2023-04-22T05:56:42.995Z,32.87
2023-04-22T05:57:43.010Z,32.86
2023-04-22T05:58:42.987Z,32.83
2023-04-22T05:59:43.105Z,32.87
2023-04-22T06:00:42.981Z,32.85
2023-04-22T06:01:41.984Z,32.86
2023-04-22T06:02:42.120Z,32.89
2023-04-22T06:03:42.247Z,32.90
2023-04-22T06:04:43.266Z,32.92
2023-04-22T06:05:42.034Z,32.89
2023-04-22T06:06:41.955Z,32.85
2023-04-22T06:07:42.987Z,32.92
2023-04-22T06:08:41.980Z,32.84
2023-04-22T06:09:42.475Z,32.84
2023-04-22T06:10:42.966Z,32.85
2023-04-22T06:11:42.990Z,32.82
2023-04-22T06:12:41.974Z,32.87
2023-04-22T06:13:41.995Z,32.80
2023-04-22T06:14:41.973Z,32.90
2023-04-22T06:15:42.971Z,32.86
2023-04-22T06:16:41.964Z,32.80
2023-04-22T06:17:42.005Z,32.81
2023-04-22T06:18:42.966Z,32.85
2023-04-22T06:19:42.984Z,32.83
2023-04-22T06:20:42.968Z,32.83
2023-04-22T06:21:42.957Z,32.81
2023-04-22T06:22:42.961Z,32.81
2023-04-22T06:23:42.975Z,32.84
2023-04-22T06:24:42.982Z,32.79
2023-04-22T06:25:42.969Z,32.76
2023-04-22T06:26:42.968Z,32.80
2023-04-22T06:27:43.037Z,32.83
2023-04-22T06:28:42.989Z,32.81
2023-04-22T06:29:41.992Z,32.80
2023-04-22T06:30:42.015Z,32.81
2023-04-22T06:31:43.130Z,32.84
2023-04-22T06:32:42.048Z,32.80
2023-04-22T06:33:41.996Z,32.84
2023-04-22T06:34:43.021Z,32.83
2023-04-22T06:35:43.052Z,32.80
2023-04-22T06:36:43.008Z,32.83
2023-04-22T06:37:43.018Z,32.78
2023-04-22T06:38:42.033Z,32.80
2023-04-22T06:39:43.227Z,32.79
2023-04-22T06:40:43.636Z,32.74
2023-04-22T06:41:43.027Z,32.71
2023-04-22T06:42:42.014Z,32.74
2023-04-22T06:43:42.039Z,32.71
2023-04-22T06:44:43.033Z,32.74
2023-04-22T06:45:42.025Z,32.65
2023-04-22T06:46:42.139Z,32.71
2023-04-22T06:47:43.081Z,32.66
2023-04-22T06:48:43.019Z,32.67
2023-04-22T06:49:43.019Z,32.68
2023-04-22T06:50:42.036Z,32.65
2023-04-22T06:51:43.020Z,32.65
2023-04-22T06:52:42.060Z,32.62
2023-04-22T06:53:42.034Z,32.62
2023-04-22T06:54:42.028Z,32.62
2023-04-22T06:55:43.020Z,32.61
2023-04-22T06:56:43.021Z,32.57
2023-04-22T06:57:42.007Z,32.56
2023-04-22T06:58:43.045Z,32.56
2023-04-22T06:59:44.450Z,32.56
2023-04-22T07:00:42.028Z,32.59
2023-04-22T07:01:43.039Z,32.56
2023-04-22T07:02:42.050Z,32.55
2023-04-22T07:03:42.073Z,32.57
2023-04-22T07:04:43.057Z,32.52
2023-04-22T07:05:41.987Z,32.52
2023-04-22T07:06:42.992Z,32.46
2023-04-22T07:07:42.958Z,32.52
2023-04-22T07:08:42.965Z,32.49
2023-04-22T07:09:42.947Z,32.47
2023-04-22T07:10:42.928Z,32.47
2023-04-22T07:11:42.953Z,32.48
2023-04-22T07:12:41.915Z,32.43
2023-04-22T07:13:41.913Z,32.41
2023-04-22T07:14:42.592Z,32.47
2023-04-22T07:15:42.929Z,32.51
2023-04-22T07:16:43.060Z,32.40
2023-04-22T07:17:42.963Z,32.38
2023-04-22T07:18:42.943Z,32.39
2023-04-22T07:19:42.938Z,32.42
2023-04-22T07:20:41.859Z,32.43
2023-04-22T07:21:42.905Z,32.40
2023-04-22T07:22:41.878Z,32.40
2023-04-22T07:23:41.840Z,32.38
2023-04-22T07:24:42.842Z,32.42
2023-04-22T07:25:42.832Z,32.39
2023-04-22T07:26:41.816Z,32.38
2023-04-22T07:27:42.821Z,32.35
2023-04-22T07:28:41.804Z,32.26
2023-04-22T07:29:42.806Z,32.28
2023-04-22T07:30:42.854Z,32.26
2023-04-22T07:31:41.902Z,32.30
2023-04-22T07:32:41.808Z,32.25
2023-04-22T07:33:42.754Z,32.24
2023-04-22T07:34:41.762Z,32.26
2023-04-22T07:35:42.749Z,32.28
2023-04-22T07:36:42.771Z,32.22
2023-04-22T07:37:42.721Z,32.24
2023-04-22T07:38:41.737Z,32.24
2023-04-22T07:39:42.807Z,32.24
2023-04-22T07:40:41.716Z,32.24
2023-04-22T07:41:42.704Z,32.28
2023-04-22T07:42:42.689Z,32.21
2023-04-22T07:43:42.683Z,32.19
2023-04-22T07:44:41.678Z,32.18
2023-04-22T07:45:42.702Z,32.11
2023-04-22T07:46:41.663Z,32.15
2023-04-22T07:47:41.686Z,32.16
2023-04-22T07:48:41.643Z,32.16
2023-04-22T07:49:42.763Z,32.14
2023-04-22T07:50:41.645Z,32.09
2023-04-22T07:51:42.620Z,32.07
2023-04-22T07:52:41.627Z,32.08
2023-04-22T07:53:42.600Z,32.00
2023-04-22T07:54:42.591Z,32.04
2023-04-22T07:55:41.596Z,32.09
2023-04-22T07:56:42.620Z,32.01
2023-04-22T07:57:41.589Z,32.06
2023-04-22T07:58:42.576Z,32.01
2023-04-22T07:59:42.618Z,32.10
2023-04-22T08:00:41.602Z,32.03
2023-04-22T08:01:42.561Z,32.00
2023-04-22T08:02:41.728Z,32.06
2023-04-22T08:03:42.779Z,32.01
2023-04-22T08:04:42.818Z,32.05
2023-04-22T08:05:41.743Z,32.03
2023-04-22T08:06:41.811Z,31.97
2023-04-22T08:07:41.844Z,31.98
2023-04-22T08:08:42.920Z,31.92
2023-04-22T08:09:42.035Z,32.01
2023-04-22T08:10:42.003Z,31.94
2023-04-22T08:11:43.087Z,31.96
2023-04-22T08:12:42.160Z,31.98
2023-04-22T08:13:43.201Z,32.01
2023-04-22T08:14:43.263Z,31.96
2023-04-22T08:15:43.382Z,31.90
2023-04-22T08:16:42.451Z,31.98
2023-04-22T08:17:43.458Z,31.96
2023-04-22T08:18:43.503Z,31.97
2023-04-22T08:19:42.602Z,31.91
2023-04-22T08:20:42.625Z,31.91
2023-04-22T08:21:43.722Z,31.96
2023-04-22T08:22:42.757Z,31.93
2023-04-22T08:23:43.826Z,31.94
2023-04-22T08:24:43.970Z,31.97
2023-04-22T08:25:43.937Z,31.92
2023-04-22T08:26:43.056Z,31.96
2023-04-22T08:27:44.095Z,31.96
2023-04-22T08:28:43.116Z,31.92
2023-04-22T08:29:44.425Z,31.90
2023-04-22T08:30:44.256Z,31.96
2023-04-22T08:31:44.440Z,31.90
2023-04-22T08:32:43.367Z,31.93
2023-04-22T08:33:43.416Z,31.81
2023-04-22T08:34:43.977Z,31.93
2023-04-22T08:35:44.595Z,31.93
2023-04-22T08:36:44.612Z,31.92
2023-04-22T08:37:43.664Z,31.89
2023-04-22T08:38:43.718Z,31.87
2023-04-22T08:39:44.782Z,31.80
2023-04-22T08:40:43.855Z,31.81
2023-04-22T08:41:43.927Z,31.93
2023-04-22T08:42:44.978Z,31.89
2023-04-22T08:43:45.023Z,31.89
2023-04-22T08:44:45.087Z,31.84
2023-04-22T08:45:44.151Z,31.86
2023-04-22T08:46:44.232Z,31.81
2023-04-22T08:47:45.260Z,31.80
2023-04-22T08:48:45.285Z,31.83
2023-04-22T08:49:45.368Z,31.87
2023-04-22T08:50:45.406Z,31.81
2023-04-22T08:51:45.479Z,31.74
2023-04-22T08:52:44.522Z,31.84
2023-04-22T08:53:44.555Z,31.81
2023-04-22T08:54:44.616Z,31.83
2023-04-22T08:55:44.683Z,31.83
2023-04-22T08:56:44.761Z,31.82
2023-04-22T08:57:45.884Z,31.85
2023-04-22T08:58:44.842Z,31.74
2023-04-22T08:59:44.886Z,31.76
2023-04-22T09:00:45.952Z,31.85
2023-04-22T09:01:46.013Z,31.82
2023-04-22T09:02:45.116Z,31.83
2023-04-22T09:03:45.185Z,31.76
2023-04-22T09:04:45.142Z,31.74
2023-04-22T09:05:45.146Z,31.80
2023-04-22T09:06:46.195Z,31.73
2023-04-22T09:07:46.248Z,31.76
2023-04-22T09:08:45.264Z,31.79
2023-04-22T09:09:45.309Z,31.74
2023-04-22T09:10:46.385Z,31.75
2023-04-22T09:11:46.409Z,31.73
2023-04-22T09:12:46.431Z,31.81
2023-04-22T09:13:45.471Z,31.79
2023-04-22T09:14:45.554Z,31.84
2023-04-22T09:15:46.552Z,31.85
2023-04-22T09:16:46.642Z,31.78
2023-04-22T09:17:45.633Z,31.84
2023-04-22T09:18:46.666Z,31.81
2023-04-22T09:19:45.689Z,31.89
2023-04-22T09:20:46.775Z,31.92
2023-04-22T09:21:49.528Z,31.83
2023-04-22T09:22:45.880Z,31.91
2023-04-22T09:23:45.823Z,31.80
2023-04-22T09:24:46.755Z,31.76
2023-04-22T09:25:45.755Z,31.77
2023-04-22T09:26:46.744Z,31.77
2023-04-22T09:27:46.476Z,31.86
2023-04-22T09:28:46.732Z,31.79
2023-04-22T09:29:46.714Z,31.75
2023-04-22T09:30:46.727Z,31.85
2023-04-22T09:31:46.735Z,31.83
2023-04-22T09:32:45.734Z,31.83
2023-04-22T09:33:48.293Z,31.80
2023-04-22T09:34:46.686Z,31.83
2023-04-22T09:35:46.694Z,31.71
2023-04-22T09:36:46.738Z,31.72
2023-04-22T09:37:49.720Z,31.76
2023-04-22T09:38:46.647Z,31.74
2023-04-22T09:39:48.218Z,31.71
2023-04-22T09:40:45.640Z,31.73
2023-04-22T09:41:45.632Z,31.65
2023-04-22T09:42:45.623Z,31.60
2023-04-22T09:43:45.622Z,31.67
2023-04-22T09:44:46.609Z,31.68
2023-04-22T09:45:45.675Z,31.65
2023-04-22T09:46:45.604Z,31.64
2023-04-22T09:47:45.633Z,31.65
2023-04-22T09:48:45.590Z,31.65
2023-04-22T09:49:45.588Z,31.59
2023-04-22T09:50:46.572Z,31.56
2023-04-22T09:51:45.557Z,31.64
2023-04-22T09:52:46.599Z,31.61
2023-04-22T09:53:45.625Z,31.63
2023-04-22T09:54:46.545Z,31.58
2023-04-22T09:55:45.647Z,31.56
2023-04-22T09:56:45.579Z,31.58
2023-04-22T09:57:46.516Z,31.55
2023-04-22T09:58:46.541Z,31.58
2023-04-22T09:59:46.558Z,31.52
2023-04-22T10:00:45.511Z,31.54
2023-04-22T10:01:46.774Z,31.58
2023-04-22T10:02:45.569Z,31.54
2023-04-22T10:03:45.530Z,31.51
2023-04-22T10:04:45.488Z,31.54
